Lost Island Lake, Iowa
Current Conditions -  °F | °C
As of 7:52 PM on Monday 20 Oct 2014 (Local Time) from KEST Reporting Station
Clear Clear  
Wind Chill: 46°   Ceiling: Unl
Heat Index: 48°   Visibility: 9mi
Dew Point: 36°   Wind: 5mph
Humidity: 63%   Direction: 320°NW
Pressure: 30.03"   Gusts: NA
Location:  43.1691°N, 94.8541°W
Report Text: KEST 210052Z AUTO 32004KT 9SM CLR 09/02 A3003 RMK AO2 SLP177 T00890022
Loading
Personal Weather Stations






























Interactive Weather Map
Tropical Storm Tracking
New forecast layout! Learn more

10-Day Weather Forecast

Advertisements
Track Severe Weather on mobile